Time;durP1;ratioP1;P1;durP2;ratioP2;P2;SDS_P1;SDS_P2;PMS_P1;PMS_P2;Temp;Humidity;BMP_temperature;BMP_pressure;BME280_temperature;BME280_humidity;BME280_pressure;Samples;Min_cycle;Max_cycle;Signal;HPM_P1;HPM_P2
2022/04/03 00:00:45;;;;;;;2.80;0.98;;;2.70;99.90;;;;;;5046400;28;20100;-34
2022/04/03 00:03:11;;;;;;;4.30;1.27;;;2.70;99.90;;;;;;5037649;28;20021;-33
2022/04/03 00:05:42;;;;;;;1.95;0.70;;;2.70;99.90;;;;;;5026208;28;20022;-32
2022/04/03 00:08:09;;;;;;;3.55;0.98;;;2.70;99.90;;;;;;5016111;28;20026;-30
2022/04/03 00:10:36;;;;;;;3.10;1.10;;;2.70;99.90;;;;;;5043790;28;20032;-32
2022/04/03 00:13:02;;;;;;;2.20;0.88;;;2.70;99.90;;;;;;5024864;28;20399;-33
2022/04/03 00:15:28;;;;;;;4.07;1.23;;;2.70;99.90;;;;;;5007402;28;20025;-32
2022/04/03 00:17:55;;;;;;;2.03;0.95;;;2.70;99.90;;;;;;5016097;28;20039;-30
2022/04/03 00:20:21;;;;;;;1.70;0.88;;;2.70;99.90;;;;;;5015511;28;20525;-29
2022/04/03 00:22:50;;;;;;;5.03;1.98;;;2.80;99.90;;;;;;5016575;28;20054;-38
2022/04/03 00:25:18;;;;;;;2.13;0.90;;;2.80;99.90;;;;;;5025914;28;20025;-34
2022/04/03 00:27:44;;;;;;;1.33;0.80;;;2.90;99.90;;;;;;5006933;28;20025;-34
2022/04/03 00:30:10;;;;;;;3.53;1.50;;;2.80;99.90;;;;;;5013518;28;20105;-30
2022/04/03 00:32:36;;;;;;;4.10;1.30;;;2.70;99.90;;;;;;5014534;28;20546;-30
2022/04/03 00:35:03;;;;;;;2.45;1.25;;;2.70;99.90;;;;;;5013637;28;20028;-33
2022/04/03 00:37:29;;;;;;;8.00;1.40;;;2.50;99.90;;;;;;5021869;28;20026;-29
2022/04/03 00:39:55;;;;;;;2.20;1.10;;;2.50;99.90;;;;;;5031980;28;20034;-30
2022/04/03 00:42:20;;;;;;;2.25;1.00;;;2.50;99.90;;;;;;5012846;28;20026;-32
2022/04/03 00:44:46;;;;;;;1.60;1.08;;;2.40;99.90;;;;;;5013423;28;20038;-33
2022/04/03 00:47:15;;;;;;;4.45;1.42;;;2.40;99.90;;;;;;5019411;28;20489;-31
2022/04/03 00:49:40;;;;;;;2.40;1.42;;;2.40;99.90;;;;;;5025683;28;20033;-34
2022/04/03 00:52:06;;;;;;;2.88;1.23;;;2.30;99.90;;;;;;5031156;28;20117;-35
2022/04/03 00:54:32;;;;;;;6.15;1.42;;;2.30;99.90;;;;;;5031394;28;20057;-30
2022/04/03 00:57:00;;;;;;;2.67;1.40;;;2.30;99.90;;;;;;5024699;28;20052;-34
2022/04/03 00:59:27;;;;;;;2.47;1.33;;;2.30;99.90;;;;;;5022117;28;20041;-30
2022/04/03 01:01:53;;;;;;;3.00;1.50;;;2.30;99.90;;;;;;4992655;28;20453;-31
2022/04/03 01:04:19;;;;;;;5.70;1.88;;;2.20;99.90;;;;;;5016444;28;20025;-30
2022/04/03 01:06:45;;;;;;;5.38;1.40;;;2.20;99.90;;;;;;5010872;28;20025;-31
2022/04/03 01:09:11;;;;;;;4.05;1.58;;;2.20;99.90;;;;;;5015432;28;20483;-30
2022/04/03 01:11:38;;;;;;;2.95;1.55;;;2.20;99.90;;;;;;5033754;28;20052;-31
2022/04/03 01:14:05;;;;;;;4.00;1.60;;;2.10;99.90;;;;;;5052768;28;20036;-30
2022/04/03 01:16:31;;;;;;;5.22;1.88;;;2.20;99.90;;;;;;5044133;28;20367;-34
2022/04/03 01:18:57;;;;;;;2.97;1.70;;;2.10;99.90;;;;;;5042952;28;20045;-30
2022/04/03 01:21:23;;;;;;;3.03;1.65;;;2.10;99.90;;;;;;5043724;28;20045;-42
2022/04/03 01:23:50;;;;;;;2.83;1.83;;;2.10;99.90;;;;;;5024123;28;20022;-36
2022/04/03 01:26:16;;;;;;;2.45;1.40;;;2.00;99.90;;;;;;5030119;28;20108;-36
2022/04/03 01:28:43;;;;;;;2.05;1.33;;;2.00;99.90;;;;;;5032904;28;20109;-36
2022/04/03 01:31:08;;;;;;;5.00;1.70;;;1.90;99.90;;;;;;5035168;28;20029;-43
2022/04/03 01:33:34;;;;;;;5.88;1.58;;;1.80;99.90;;;;;;5044432;28;20035;-36
2022/04/03 01:36:00;;;;;;;2.67;1.90;;;1.80;99.90;;;;;;5049456;28;20495;-38
2022/04/03 01:38:26;;;;;;;3.25;1.70;;;1.80;99.90;;;;;;5042571;28;20108;-36
2022/04/03 01:40:51;;;;;;;2.90;1.27;;;1.70;99.90;;;;;;5032596;28;20477;-36
2022/04/03 01:43:17;;;;;;;4.35;1.58;;;1.70;99.90;;;;;;5039042;28;20033;-36
2022/04/03 01:45:43;;;;;;;5.80;1.98;;;1.70;99.90;;;;;;5028831;28;20048;-36
2022/04/03 01:48:09;;;;;;;5.53;1.35;;;1.70;99.90;;;;;;5043740;28;20025;-35
2022/04/03 01:50:35;;;;;;;3.58;2.03;;;1.80;99.90;;;;;;5035886;28;20386;-35
2022/04/03 01:53:01;;;;;;;6.72;1.95;;;1.90;99.90;;;;;;5034714;28;20010;-33
2022/04/03 01:55:28;;;;;;;1.98;1.58;;;1.90;99.90;;;;;;5019671;28;20489;-32
2022/04/03 01:57:53;;;;;;;3.67;2.08;;;1.90;99.90;;;;;;5028694;28;20032;-35
2022/04/03 02:00:19;;;;;;;5.95;1.90;;;2.00;99.90;;;;;;5033577;28;20473;-33
2022/04/03 02:02:45;;;;;;;2.65;1.80;;;2.00;99.90;;;;;;5031690;28;20148;-32
2022/04/03 02:05:11;;;;;;;4.63;1.60;;;1.90;99.90;;;;;;5022518;28;20037;-34
2022/04/03 02:07:38;;;;;;;1.88;1.45;;;2.00;99.90;;;;;;5016213;28;20053;-31
2022/04/03 02:10:08;;;;;;;2.60;1.88;;;2.00;99.90;;;;;;5016321;28;20505;-30
2022/04/03 02:12:35;;;;;;;4.07;1.83;;;2.00;99.90;;;;;;5015761;28;20042;-31
2022/04/03 02:15:01;;;;;;;2.83;1.80;;;2.10;99.90;;;;;;5029268;28;20144;-30
2022/04/03 02:17:26;;;;;;;3.25;1.80;;;2.20;99.90;;;;;;5028188;28;20030;-29
2022/04/03 02:19:52;;;;;;;2.75;1.45;;;2.20;99.90;;;;;;5028997;28;20091;-30
2022/04/03 02:22:17;;;;;;;4.63;1.45;;;2.30;99.90;;;;;;5031676;28;20028;-30
2022/04/03 02:24:43;;;;;;;3.08;2.00;;;2.40;99.90;;;;;;5015459;28;20470;-31
2022/04/03 02:27:08;;;;;;;5.95;2.05;;;2.50;99.90;;;;;;5027427;28;20477;-29
2022/04/03 02:29:34;;;;;;;3.08;1.80;;;2.50;99.90;;;;;;5055409;28;20550;-30
2022/04/03 02:31:59;;;;;;;1.85;1.50;;;2.60;99.90;;;;;;5054774;28;20074;-35
2022/04/03 02:34:26;;;;;;;2.67;1.65;;;2.60;99.90;;;;;;5041413;28;20034;-30
2022/04/03 02:36:52;;;;;;;2.20;1.40;;;2.60;99.90;;;;;;5033473;28;20033;-30
2022/04/03 02:39:18;;;;;;;4.03;1.50;;;2.60;99.90;;;;;;5042103;28;20036;-43
2022/04/03 02:41:43;;;;;;;5.40;1.67;;;2.70;99.90;;;;;;5032147;28;20053;-32
2022/04/03 02:44:09;;;;;;;4.07;1.23;;;2.70;99.90;;;;;;5043171;28;20577;-34
2022/04/03 02:46:35;;;;;;;2.15;1.60;;;2.70;99.90;;;;;;5022261;28;20048;-29
2022/04/03 02:49:01;;;;;;;3.28;1.75;;;2.80;99.90;;;;;;5050792;28;20485;-33
2022/04/03 02:51:26;;;;;;;3.13;1.65;;;2.80;99.90;;;;;;5053226;28;20029;-38
2022/04/03 02:53:52;;;;;;;7.65;1.52;;;2.80;99.90;;;;;;5047306;28;20060;-47
2022/04/03 02:56:18;;;;;;;2.33;1.52;;;2.70;99.90;;;;;;5044998;28;20055;-37
2022/04/03 02:58:43;;;;;;;3.38;1.30;;;2.60;99.90;;;;;;5049334;28;20036;-36
2022/04/03 03:01:09;;;;;;;1.77;1.30;;;2.50;99.90;;;;;;5052535;28;20469;-36
2022/04/03 03:03:35;;;;;;;2.92;1.70;;;2.50;99.90;;;;;;5043370;28;20475;-35
2022/04/03 03:06:01;;;;;;;2.03;1.58;;;2.50;99.90;;;;;;5035658;28;20071;-35
2022/04/03 03:08:27;;;;;;;4.20;1.30;;;2.60;99.90;;;;;;5041663;28;20057;-36
2022/04/03 03:10:53;;;;;;;3.83;1.48;;;2.60;99.90;;;;;;5039046;28;20045;-35
2022/04/03 03:13:18;;;;;;;2.97;1.42;;;2.70;99.90;;;;;;5016749;28;20501;-37
2022/04/03 03:15:44;;;;;;;1.52;1.15;;;2.70;99.90;;;;;;5024282;28;20029;-37
2022/04/03 03:18:10;;;;;;;3.55;1.50;;;2.70;99.90;;;;;;5034756;28;20029;-35
2022/04/03 03:20:35;;;;;;;1.80;1.35;;;2.80;99.90;;;;;;5035064;28;20502;-36
2022/04/03 03:23:01;;;;;;;2.38;1.50;;;2.80;99.90;;;;;;5023869;28;20029;-36
2022/04/03 03:25:28;;;;;;;1.52;1.20;;;2.80;99.90;;;;;;5024455;28;20025;-35
2022/04/03 03:27:53;;;;;;;1.58;1.30;;;2.80;99.90;;;;;;5031707;28;20033;-37
2022/04/03 03:30:19;;;;;;;3.13;1.33;;;2.80;99.90;;;;;;5011259;28;20037;-38
2022/04/03 03:32:45;;;;;;;3.65;1.70;;;2.80;99.90;;;;;;5002814;28;20060;-36
2022/04/03 03:35:11;;;;;;;3.03;1.52;;;2.90;99.90;;;;;;5016589;28;20109;-35
2022/04/03 03:37:37;;;;;;;2.83;1.33;;;3.00;99.90;;;;;;5032234;28;20061;-36
2022/04/03 03:40:06;;;;;;;1.90;1.23;;;3.00;99.90;;;;;;5034153;28;20030;-36
2022/04/03 03:42:32;;;;;;;2.05;1.52;;;3.00;99.90;;;;;;5025749;28;20021;-38
2022/04/03 03:44:58;;;;;;;4.40;1.50;;;3.00;99.90;;;;;;5018669;28;20092;-39
2022/04/03 03:47:24;;;;;;;6.70;1.73;;;3.00;99.90;;;;;;5015780;28;20022;-72
2022/04/03 03:49:50;;;;;;;2.97;1.67;;;3.10;99.90;;;;;;5029914;28;20080;-36
2022/04/03 03:52:16;;;;;;;4.18;1.52;;;3.10;99.90;;;;;;5018303;28;20033;-41
2022/04/03 03:54:41;;;;;;;4.80;1.77;;;3.20;99.90;;;;;;5018565;28;20088;-36
2022/04/03 03:57:07;;;;;;;5.53;1.90;;;3.20;99.90;;;;;;5015692;28;20109;-35
2022/04/03 03:59:33;;;;;;;2.17;1.90;;;3.20;99.90;;;;;;5024688;28;20025;-35
2022/04/03 04:02:01;;;;;;;3.05;2.75;;;3.20;99.90;;;;;;5033505;28;20029;-35
2022/04/03 04:04:29;;;;;;;2.55;2.20;;;3.10;99.90;;;;;;5034990;28;20025;-44
2022/04/03 04:06:55;;;;;;;6.97;2.53;;;3.10;99.90;;;;;;5020262;28;20497;-41
2022/04/03 04:09:20;;;;;;;3.42;1.98;;;3.00;99.90;;;;;;5024939;28;20030;-35
2022/04/03 04:11:46;;;;;;;3.30;2.53;;;3.00;99.90;;;;;;5043431;28;20083;-35
2022/04/03 04:14:12;;;;;;;2.65;2.28;;;3.00;99.90;;;;;;5025414;28;20034;-38
2022/04/03 04:16:38;;;;;;;3.60;2.63;;;2.90;99.90;;;;;;5016716;28;20446;-36
2022/04/03 04:19:03;;;;;;;4.00;2.78;;;2.90;99.90;;;;;;5022696;28;20046;-36
2022/04/03 04:21:29;;;;;;;5.20;3.10;;;2.80;99.90;;;;;;5017104;28;20470;-36
2022/04/03 04:23:55;;;;;;;5.00;2.95;;;2.80;99.90;;;;;;5043682;28;20029;-37
2022/04/03 04:26:20;;;;;;;4.82;3.15;;;2.70;99.90;;;;;;5024659;28;20482;-36
2022/04/03 04:28:48;;;;;;;4.78;3.05;;;2.70;99.90;;;;;;5028394;28;20032;-35
2022/04/03 04:31:15;;;;;;;4.43;3.22;;;2.60;99.90;;;;;;5022251;28;20025;-36
2022/04/03 04:33:41;;;;;;;3.20;2.72;;;2.60;99.90;;;;;;5002310;28;20069;-36
2022/04/03 04:36:07;;;;;;;6.63;3.72;;;2.50;99.90;;;;;;5025718;28;20026;-35
2022/04/03 04:38:33;;;;;;;4.90;3.63;;;2.40;99.90;;;;;;5012748;28;20072;-36
2022/04/03 04:40:58;;;;;;;5.75;3.67;;;2.30;99.90;;;;;;5013996;28;20057;-37
2022/04/03 04:43:24;;;;;;;4.78;3.70;;;2.30;99.90;;;;;;5021803;28;20021;-36
2022/04/03 04:45:49;;;;;;;5.10;3.50;;;2.20;99.90;;;;;;5015511;28;20057;-36
2022/04/03 04:48:16;;;;;;;4.45;3.88;;;2.20;99.90;;;;;;5028974;28;20104;-35
2022/04/03 04:50:41;;;;;;;5.75;3.88;;;2.20;99.90;;;;;;5032020;28;20416;-37
2022/04/03 04:53:07;;;;;;;6.88;3.95;;;2.20;99.90;;;;;;5013824;28;20045;-35
2022/04/03 04:55:33;;;;;;;6.28;3.95;;;2.20;99.90;;;;;;5020588;28;20448;-37
2022/04/03 04:57:58;;;;;;;6.60;4.32;;;2.20;99.90;;;;;;5030785;28;20081;-37
2022/04/03 05:00:26;;;;;;;12.32;4.63;;;2.20;99.90;;;;;;5010017;28;20053;-36
2022/04/03 05:02:52;;;;;;;7.90;4.57;;;2.10;99.90;;;;;;5027277;28;20576;-36
2022/04/03 05:05:19;;;;;;;8.23;3.92;;;2.10;99.90;;;;;;5016875;28;20092;-36
2022/04/03 05:07:47;;;;;;;8.05;3.53;;;2.10;99.90;;;;;;5029699;28;20441;-35
2022/04/03 05:10:15;;;;;;;11.95;5.65;;;2.00;99.90;;;;;;5019473;28;20029;-37
2022/04/03 05:12:42;;;;;;;5.27;2.93;;;2.00;99.90;;;;;;5027143;28;20042;-36
2022/04/03 05:15:10;;;;;;;8.77;4.45;;;2.00;99.90;;;;;;5034802;28;20357;-37
2022/04/03 05:17:36;;;;;;;7.90;4.53;;;2.10;99.90;;;;;;5039864;28;20473;-36
2022/04/03 05:20:03;;;;;;;7.70;4.68;;;2.10;99.90;;;;;;5029530;28;20044;-35
2022/04/03 05:22:29;;;;;;;10.50;5.25;;;2.00;99.90;;;;;;5041850;28;20033;-35
2022/04/03 05:24:54;;;;;;;10.70;4.72;;;2.00;99.90;;;;;;5019157;28;20431;-36
2022/04/03 05:27:20;;;;;;;6.40;4.57;;;2.00;99.90;;;;;;5036680;28;20072;-37
2022/04/03 05:29:46;;;;;;;8.00;4.85;;;2.00;99.90;;;;;;5022238;28;20075;-35
2022/04/03 05:32:12;;;;;;;9.98;4.95;;;2.00;99.90;;;;;;5038323;28;20025;-36
2022/04/03 05:34:38;;;;;;;11.15;5.40;;;2.00;99.90;;;;;;5054893;28;20036;-37
2022/04/03 05:37:03;;;;;;;8.25;5.25;;;2.10;99.90;;;;;;5042616;28;20025;-38
2022/04/03 05:39:29;;;;;;;7.20;4.22;;;2.10;99.90;;;;;;5038011;28;20089;-37
2022/04/03 05:41:55;;;;;;;10.32;5.15;;;2.10;99.90;;;;;;5032141;28;20029;-31
2022/04/03 05:44:24;;;;;;;10.00;4.35;;;2.20;99.90;;;;;;5024830;28;20025;-37
2022/04/03 05:46:51;;;;;;;8.15;5.13;;;2.20;99.90;;;;;;5022908;28;20477;-36
2022/04/03 05:49:17;;;;;;;7.00;4.38;;;2.30;99.90;;;;;;5011464;28;20040;-35
2022/04/03 05:51:43;;;;;;;8.82;4.97;;;2.30;99.90;;;;;;5007234;28;20062;-35
2022/04/03 05:54:10;;;;;;;5.70;4.60;;;2.40;99.90;;;;;;5024649;28;20033;-35
2022/04/03 05:56:36;;;;;;;7.10;4.55;;;2.50;99.90;;;;;;5035024;28;20485;-36
2022/04/03 05:59:01;;;;;;;8.63;4.53;;;2.50;99.90;;;;;;5033939;28;20017;-35
2022/04/03 06:01:27;;;;;;;6.25;4.28;;;2.60;99.90;;;;;;5023202;28;20018;-36
2022/04/03 06:03:53;;;;;;;9.45;5.25;;;2.70;99.90;;;;;;5021050;28;20097;-35
2022/04/03 06:06:18;;;;;;;15.57;5.43;;;2.70;99.90;;;;;;5031298;28;20056;-35
2022/04/03 06:08:44;;;;;;;6.57;4.30;;;2.80;99.90;;;;;;5026922;28;20025;-35
2022/04/03 06:11:10;;;;;;;7.82;4.63;;;2.80;99.90;;;;;;5028806;28;20524;-35
2022/04/03 06:13:36;;;;;;;7.68;3.85;;;2.90;99.90;;;;;;5028044;28;20136;-36
2022/04/03 06:16:02;;;;;;;9.27;4.13;;;3.00;99.90;;;;;;5035645;28;20040;-37
2022/04/03 06:18:28;;;;;;;8.23;4.18;;;3.00;99.90;;;;;;5034772;28;20381;-38
2022/04/03 06:20:54;;;;;;;10.82;3.58;;;3.10;99.90;;;;;;5011693;28;20029;-37
2022/04/03 06:23:21;;;;;;;5.72;3.88;;;3.10;99.90;;;;;;5020690;28;20030;-54
2022/04/03 06:25:52;;;;;;;4.33;3.60;;;3.10;99.90;;;;;;5023701;28;20020;-35
2022/04/03 06:28:18;;;;;;;8.00;3.72;;;3.20;99.90;;;;;;5031686;28;20017;-35
2022/04/03 06:30:44;;;;;;;5.15;3.38;;;3.20;99.90;;;;;;5023182;28;20025;-37
2022/04/03 06:33:10;;;;;;;5.57;3.42;;;3.30;99.90;;;;;;5023339;28;20022;-40
2022/04/03 06:35:35;;;;;;;4.88;3.47;;;3.30;99.90;;;;;;5016544;28;20367;-35
2022/04/03 06:38:01;;;;;;;8.43;3.58;;;3.40;99.90;;;;;;5023864;28;20026;-64
2022/04/03 06:40:27;;;;;;;6.97;3.47;;;3.50;99.90;;;;;;5025417;28;20131;-35
2022/04/03 06:42:53;;;;;;;5.63;3.17;;;3.60;99.90;;;;;;5021305;28;20014;-35
2022/04/03 06:45:19;;;;;;;6.05;3.45;;;3.70;99.90;;;;;;5019836;28;20021;-37
2022/04/03 06:47:45;;;;;;;10.95;3.30;;;3.80;99.90;;;;;;5021825;28;20108;-36
2022/04/03 06:50:12;;;;;;;7.25;2.55;;;3.90;99.90;;;;;;5027596;28;20033;-35
2022/04/03 06:52:38;;;;;;;6.18;2.72;;;4.00;99.90;;;;;;5020809;28;20474;-37
2022/04/03 06:55:05;;;;;;;3.92;2.60;;;4.10;99.90;;;;;;5032941;28;20104;-43
2022/04/03 06:57:30;;;;;;;3.23;2.33;;;4.10;99.90;;;;;;5017964;28;20083;-37
2022/04/03 06:59:56;;;;;;;6.90;2.50;;;4.10;99.90;;;;;;5018204;28;20030;-36
2022/04/03 07:02:22;;;;;;;4.72;2.00;;;4.10;99.90;;;;;;5030100;28;20030;-35
2022/04/03 07:04:48;;;;;;;3.13;2.22;;;4.00;99.90;;;;;;5033127;28;20091;-34
2022/04/03 07:07:21;;;;;;;6.90;2.15;;;4.00;99.90;;;;;;5002447;28;20065;-37
2022/04/03 07:09:48;;;;;;;2.92;1.98;;;4.00;99.90;;;;;;5019731;28;20030;-36
2022/04/03 07:12:14;;;;;;;5.53;2.45;;;4.10;99.90;;;;;;5024339;28;20052;-59
2022/04/03 07:14:40;;;;;;;2.95;1.80;;;4.30;99.90;;;;;;5015175;28;20034;-35
2022/04/03 07:17:05;;;;;;;3.75;2.08;;;4.50;99.90;;;;;;5014905;28;20079;-37
2022/04/03 07:19:31;;;;;;;88.72;51.88;;;4.70;99.90;;;;;;5019299;28;20041;-36
2022/04/03 07:21:57;;;;;;;3.03;2.83;;;4.90;99.90;;;;;;5028975;28;20026;-35
2022/04/03 07:24:24;;;;;;;23.02;10.75;;;5.10;99.90;;;;;;5032459;28;20049;-36
2022/04/03 07:26:49;;;;;;;4.65;1.60;;;5.40;99.90;;;;;;5034420;28;20425;-36
2022/04/03 07:29:15;;;;;;;7.97;5.45;;;5.50;99.90;;;;;;5026456;28;20103;-38
2022/04/03 07:31:41;;;;;;;10.57;5.38;;;5.60;99.90;;;;;;5033447;28;20020;-35
2022/04/03 07:34:07;;;;;;;4.10;1.77;;;5.60;99.90;;;;;;5014930;28;20100;-37
2022/04/03 07:36:32;;;;;;;2.15;1.67;;;5.70;99.90;;;;;;5021869;28;20077;-74
2022/04/03 07:38:58;;;;;;;3.90;2.60;;;5.80;99.90;;;;;;5034176;28;20065;-36
2022/04/03 07:41:23;;;;;;;15.23;6.13;;;5.90;99.90;;;;;;5025850;28;20083;-36
2022/04/03 07:43:49;;;;;;;4.40;2.00;;;5.90;99.90;;;;;;5029573;28;20032;-36
2022/04/03 07:46:17;;;;;;;10.13;5.43;;;6.00;99.90;;;;;;5006079;28;20040;-37
2022/04/03 07:48:43;;;;;;;14.10;9.02;;;6.00;99.90;;;;;;5032846;28;20377;-35
2022/04/03 07:51:09;;;;;;;14.88;8.02;;;6.00;99.90;;;;;;5024995;28;20029;-36
2022/04/03 07:53:35;;;;;;;2.50;1.58;;;6.10;99.90;;;;;;5014301;28;20053;-37
2022/04/03 07:56:01;;;;;;;2.67;0.82;;;6.10;99.90;;;;;;4997973;28;20025;-64
2022/04/03 07:58:27;;;;;;;0.70;0.70;;;6.30;99.90;;;;;;4996355;28;20029;-36
2022/04/03 08:00:53;;;;;;;2.72;1.83;;;6.30;99.90;;;;;;5022274;28;20018;-35
2022/04/03 08:03:19;;;;;;;2.58;2.00;;;6.40;99.90;;;;;;5003589;28;20478;-37
2022/04/03 08:05:44;;;;;;;1.52;0.75;;;6.40;99.90;;;;;;5030563;28;20028;-36
2022/04/03 08:08:10;;;;;;;7.32;3.10;;;6.50;99.90;;;;;;5031384;28;20028;-36
2022/04/03 08:10:36;;;;;;;1.98;1.85;;;6.70;99.90;;;;;;5032181;28;20021;-35
2022/04/03 08:13:01;;;;;;;3.95;0.80;;;6.90;99.90;;;;;;5032141;28;20041;-36
2022/04/03 08:15:28;;;;;;;1.90;1.35;;;7.10;99.90;;;;;;5032900;28;20040;-36
2022/04/03 08:17:54;;;;;;;3.67;2.97;;;7.40;99.90;;;;;;5033463;28;20032;-37
2022/04/03 08:20:20;;;;;;;5.97;1.45;;;7.80;99.90;;;;;;5016496;28;20418;-30
2022/04/03 08:22:47;;;;;;;6.15;1.13;;;8.10;99.90;;;;;;5026125;28;20493;-32
2022/04/03 08:25:13;;;;;;;3.08;1.52;;;8.10;99.90;;;;;;5016104;28;20025;-32
2022/04/03 08:27:53;;;;;;;3.88;1.02;;;8.20;99.90;;;;;;5033360;28;20017;-30
2022/04/03 08:30:24;;;;;;;4.90;3.22;;;8.30;99.90;;;;;;5032680;28;20519;-31
2022/04/03 08:32:51;;;;;;;2.90;1.00;;;8.30;99.90;;;;;;5027161;28;20046;-30
2022/04/03 08:35:18;;;;;;;2.47;1.20;;;8.20;99.90;;;;;;5016515;28;20021;-32
2022/04/03 08:37:44;;;;;;;3.13;0.60;;;8.20;99.90;;;;;;5026033;28;20024;-43
2022/04/03 08:40:12;;;;;;;2.67;1.33;;;8.10;99.90;;;;;;5025558;28;20033;-32
2022/04/03 08:42:38;;;;;;;21.45;8.43;;;8.10;99.90;;;;;;5033003;28;20021;-28
2022/04/03 08:45:07;;;;;;;6.32;1.15;;;8.10;99.90;;;;;;5029256;28;20026;-32
2022/04/03 08:47:42;;;;;;;1.75;1.10;;;8.00;99.90;;;;;;5014639;28;20189;-62
2022/04/03 08:50:08;;;;;;;2.78;1.75;;;8.00;99.90;;;;;;5018430;28;20500;-62
2022/04/03 08:52:36;;;;;;;1.75;0.50;;;8.00;99.90;;;;;;5020862;28;20075;-29
2022/04/03 08:55:04;;;;;;;2.67;0.73;;;7.90;99.90;;;;;;5018252;28;20470;-30
2022/04/03 08:57:29;;;;;;;1.35;0.70;;;7.90;99.90;;;;;;5014656;28;20531;-30
2022/04/03 08:59:56;;;;;;;0.70;0.65;;;7.80;99.90;;;;;;5014556;28;20030;-29
2022/04/03 09:02:21;;;;;;;4.78;0.85;;;8.00;99.90;;;;;;5026457;28;20025;-28
2022/04/03 09:04:47;;;;;;;0.65;0.60;;;8.20;99.90;;;;;;5035669;28;20020;-32
2022/04/03 09:07:18;;;;;;;2.20;0.70;;;8.40;99.90;;;;;;5035486;28;20026;-30
2022/04/03 09:09:44;;;;;;;0.75;0.70;;;8.80;99.90;;;;;;5016862;28;20105;-30
2022/04/03 09:12:12;;;;;;;4.22;1.02;;;8.80;99.90;;;;;;5016423;28;20592;-29
2022/04/03 09:14:53;;;;;;;6.95;1.02;;;8.70;99.90;;;;;;5020258;28;20045;-29
2022/04/03 09:17:53;;;;;;;6.22;2.55;;;8.50;99.90;;;;;;5023620;28;20071;-31
2022/04/03 09:20:22;;;;;;;6.72;2.88;;;8.50;99.90;;;;;;5032330;28;20096;-30
2022/04/03 09:22:53;;;;;;;3.58;1.60;;;8.70;99.90;;;;;;4999476;28;20029;-30
2022/04/03 09:25:30;;;;;;;2.45;1.15;;;9.00;99.90;;;;;;5016136;28;20032;-30
2022/04/03 09:28:02;;;;;;;0.90;0.90;;;8.90;99.90;;;;;;5016512;28;20025;-29
2022/04/03 09:30:37;;;;;;;1.58;1.00;;;8.30;99.90;;;;;;5013078;28;20505;-29
2022/04/03 09:33:05;;;;;;;1.67;0.77;;;8.00;99.90;;;;;;5031206;28;20482;-29
2022/04/03 09:35:52;;;;;;;1.33;0.85;;;7.60;99.90;;;;;;5026483;28;20030;-28
2022/04/03 09:38:18;;;;;;;6.47;1.10;;;7.20;99.90;;;;;;5022845;28;20036;-30
2022/04/03 09:40:50;;;;;;;1.38;1.23;;;7.00;99.90;;;;;;5035627;28;20021;-31
2022/04/03 09:43:16;;;;;;;5.28;1.17;;;6.80;99.90;;;;;;5031658;28;20543;-30
2022/04/03 09:45:49;;;;;;;1.42;1.05;;;6.80;99.90;;;;;;5020007;28;20030;-28
2022/04/03 09:48:26;;;;;;;1.50;1.30;;;6.80;99.90;;;;;;5027811;28;20087;-29
2022/04/03 09:51:04;;;;;;;0.90;0.90;;;6.70;99.90;;;;;;5025944;28;20543;-29
2022/04/03 09:53:52;;;;;;;1.85;0.70;;;6.40;99.90;;;;;;5026649;28;20033;-29
2022/04/03 09:56:24;;;;;;;1.08;1.08;;;6.50;99.90;;;;;;5023978;28;20489;-28
2022/04/03 09:58:49;;;;;;;2.97;0.60;;;6.50;99.90;;;;;;5022989;28;20095;-29
2022/04/03 10:01:35;;;;;;;1.23;0.55;;;6.40;99.90;;;;;;5033503;28;20026;-29
2022/04/03 10:04:09;;;;;;;1.30;0.60;;;6.20;99.90;;;;;;5022894;28;20450;-29
2022/04/03 10:06:38;;;;;;;4.13;1.13;;;6.10;99.90;;;;;;5023704;28;20037;-28
2022/04/03 10:09:04;;;;;;;0.52;0.50;;;6.10;99.90;;;;;;5024114;28;20091;-29
2022/04/03 10:11:30;;;;;;;0.40;0.40;;;6.10;99.90;;;;;;5021163;28;20193;-32
2022/04/03 10:13:56;;;;;;;0.45;0.32;;;6.20;99.90;;;;;;5017300;28;20046;-33
2022/04/03 10:16:22;;;;;;;2.55;0.55;;;6.30;99.90;;;;;;5015479;28;20521;-31
2022/04/03 10:18:49;;;;;;;1.35;0.70;;;6.60;99.90;;;;;;5015260;28;20030;-36
2022/04/03 10:21:28;;;;;;;2.15;0.70;;;6.90;99.90;;;;;;5015367;28;20091;-33
2022/04/03 10:24:17;;;;;;;3.03;0.75;;;7.00;99.90;;;;;;5015622;28;20029;-33
2022/04/03 10:27:09;;;;;;;2.20;1.67;;;7.10;99.90;;;;;;5029795;28;20041;-36
2022/04/03 10:29:37;;;;;;;1.13;0.70;;;7.10;99.90;;;;;;5004606;28;20096;-29
2022/04/03 10:32:04;;;;;;;0.40;0.40;;;7.20;99.90;;;;;;5017620;28;20029;-42
2022/04/03 10:34:30;;;;;;;0.60;0.60;;;7.40;99.90;;;;;;4997658;28;20402;-32
2022/04/03 10:36:56;;;;;;;1.42;1.25;;;7.60;99.90;;;;;;5020608;28;20028;-30
2022/04/03 10:39:27;;;;;;;3.17;0.60;;;7.70;99.90;;;;;;5027513;28;20030;-32
2022/04/03 10:42:16;;;;;;;0.93;0.52;;;7.90;99.90;;;;;;4997045;28;20628;-29
2022/04/03 10:44:41;;;;;;;1.35;0.60;;;8.30;99.90;;;;;;5015120;28;20474;-32
2022/04/03 10:47:10;;;;;;;3.08;1.20;;;8.50;99.90;;;;;;5015020;28;20037;-30
2022/04/03 10:49:40;;;;;;;0.57;0.52;;;8.70;99.90;;;;;;5015181;28;20041;-30
2022/04/03 10:52:22;;;;;;;1.27;0.55;;;8.80;99.90;;;;;;4998015;28;20040;-29
2022/04/03 10:54:57;;;;;;;7.20;0.75;;;8.80;99.90;;;;;;5023657;28;20441;-31
2022/04/03 10:57:33;;;;;;;1.13;0.50;;;8.80;99.90;;;;;;5020925;28;20033;-29
2022/04/03 11:00:14;;;;;;;2.72;0.38;;;9.30;99.90;;;;;;5014324;28;20441;-41
2022/04/03 11:02:50;;;;;;;1.67;0.55;;;9.60;99.90;;;;;;5014625;28;20486;-30
2022/04/03 11:05:22;;;;;;;3.97;0.32;;;9.50;99.90;;;;;;5030317;28;20025;-30
2022/04/03 11:07:49;;;;;;;0.35;0.35;;;9.70;99.90;;;;;;5018453;28;20026;-35
2022/04/03 11:10:15;;;;;;;0.75;0.73;;;9.50;99.90;;;;;;5014317;28;20034;-29
2022/04/03 11:12:54;;;;;;;0.70;0.35;;;9.40;99.90;;;;;;5033825;28;20088;-42
2022/04/03 11:15:20;;;;;;;3.60;0.73;;;9.40;99.90;;;;;;5025113;28;20045;-29
2022/04/03 11:17:52;;;;;;;0.90;0.50;;;9.20;99.90;;;;;;5014818;28;20033;-37
2022/04/03 11:20:31;;;;;;;2.10;0.38;;;8.90;99.90;;;;;;5025996;28;20029;-49
2022/04/03 11:22:58;;;;;;;0.30;0.30;;;8.80;99.90;;;;;;5015106;28;20029;-31
2022/04/03 11:25:24;;;;;;;3.70;0.57;;;8.50;99.90;;;;;;5014554;28;20128;-39
2022/04/03 11:27:50;;;;;;;3.80;0.38;;;8.60;99.90;;;;;;5026436;28;20018;-30
2022/04/03 11:30:17;;;;;;;1.55;0.40;;;8.90;99.90;;;;;;5029963;28;20477;-32
2022/04/03 11:32:44;;;;;;;2.67;0.47;;;9.20;99.90;;;;;;5034068;28;20386;-29
2022/04/03 11:35:10;;;;;;;0.50;0.50;;;9.30;99.90;;;;;;5026364;28;20041;-30
2022/04/03 11:37:35;;;;;;;1.25;0.50;;;9.50;99.90;;;;;;5013997;28;20042;-34
2022/04/03 11:40:04;;;;;;;1.33;0.50;;;9.80;99.90;;;;;;5017462;28;20035;-30
2022/04/03 11:42:29;;;;;;;2.15;0.40;;;9.80;99.90;;;;;;5030378;28;20038;-30
2022/04/03 11:44:55;;;;;;;0.52;0.52;;;9.40;99.90;;;;;;5019081;28;20037;-29
2022/04/03 11:47:24;;;;;;;1.25;0.60;;;9.10;99.90;;;;;;5034047;28;20088;-30
2022/04/03 11:50:07;;;;;;;0.52;0.40;;;8.70;99.90;;;;;;5033117;28;20037;-31
2022/04/03 11:52:35;;;;;;;1.80;0.50;;;8.20;99.90;;;;;;5014451;28;20105;-33
2022/04/03 11:55:01;;;;;;;0.43;0.43;;;7.70;99.90;;;;;;5020390;28;20017;-30
2022/04/03 11:57:26;;;;;;;1.65;0.38;;;7.30;99.90;;;;;;5023950;28;20030;-30
2022/04/03 11:59:55;;;;;;;0.30;0.30;;;7.00;99.90;;;;;;5013509;28;20088;-37
2022/04/03 12:02:20;;;;;;;0.20;0.20;;;6.80;99.90;;;;;;5003127;28;20079;-30
2022/04/03 12:04:46;;;;;;;0.55;0.43;;;6.60;99.90;;;;;;5017181;28;20029;-32
2022/04/03 12:07:14;;;;;;;0.32;0.32;;;6.60;99.90;;;;;;5013878;28;20398;-30
2022/04/03 12:09:46;;;;;;;1.05;0.25;;;6.70;99.90;;;;;;5013750;28;20029;-33
2022/04/03 12:12:27;;;;;;;0.52;0.28;;;6.60;99.90;;;;;;5132904;27;20512;-34
2022/04/03 12:14:52;;;;;;;7.07;0.40;;;6.80;99.90;;;;;;5141621;27;20031;-30
2022/04/03 12:17:19;;;;;;;0.40;0.20;;;6.80;99.90;;;;;;5150964;27;20023;-30
2022/04/03 12:19:47;;;;;;;0.50;0.50;;;7.00;99.90;;;;;;5150870;27;20023;-30
2022/04/03 12:22:18;;;;;;;0.45;0.40;;;7.10;99.90;;;;;;5151985;27;20061;-32
2022/04/03 12:24:45;;;;;;;0.50;0.50;;;7.30;99.90;;;;;;5150405;27;20022;-32
2022/04/03 12:27:14;;;;;;;1.92;0.70;;;7.40;99.90;;;;;;5147970;27;20533;-30
2022/04/03 12:29:46;;;;;;;0.63;0.32;;;7.50;99.90;;;;;;5148329;27;20027;-29
2022/04/03 12:32:19;;;;;;;0.43;0.43;;;7.80;99.90;;;;;;5151742;27;20035;-30
2022/04/03 12:34:47;;;;;;;1.05;0.52;;;8.30;99.90;;;;;;5141994;27;20063;-31
2022/04/03 12:37:13;;;;;;;;;;;8.60;99.90;;;;;;5135632;27;20026;-30
2022/04/03 12:39:42;;;;;;;9.85;0.68;;;9.00;99.90;;;;;;5129034;28;19959;-29
2022/04/03 12:42:34;;;;;;;2.58;0.60;;;9.30;99.90;;;;;;5143801;27;20389;-30
2022/04/03 12:45:15;;;;;;;3.35;0.63;;;9.60;99.90;;;;;;5142225;27;20514;-30
2022/04/03 12:47:43;;;;;;;0.63;0.50;;;10.20;99.90;;;;;;5147021;27;20019;-29
2022/04/03 12:50:16;;;;;;;0.75;0.63;;;10.30;99.90;;;;;;5147581;27;20551;-29
2022/04/03 12:52:44;;;;;;;1.25;0.77;;;10.20;99.90;;;;;;5151709;27;20083;-30
2022/04/03 12:55:22;;;;;;;1.58;0.70;;;10.20;99.90;;;;;;5150138;27;20029;-33
2022/04/03 12:58:24;;;;;;;2.88;0.80;;;10.20;99.90;;;;;;5147084;27;20083;-30